sensor_id;sensor_type;location;lat;lon;timestamp;temperature;humidity
13960;DHT22;7052;51.050;3.716;2024-03-02T00:01:45;6.60;99.90
13960;DHT22;7052;51.050;3.716;2024-03-02T00:04:14;6.60;99.90
13960;DHT22;7052;51.050;3.716;2024-03-02T00:06:45;6.60;99.90
13960;DHT22;7052;51.050;3.716;2024-03-02T00:09:12;6.60;99.90
13960;DHT22;7052;51.050;3.716;2024-03-02T00:11:40;6.60;99.90
13960;DHT22;7052;51.050;3.716;2024-03-02T00:14:08;6.70;99.90
13960;DHT22;7052;51.050;3.716;2024-03-02T00:16:36;6.70;99.90
13960;DHT22;7052;51.050;3.716;2024-03-02T00:19:07;6.70;99.90
13960;DHT22;7052;51.050;3.716;2024-03-02T00:21:37;6.70;99.90
13960;DHT22;7052;51.050;3.716;2024-03-02T00:24:19;6.70;99.90
13960;DHT22;7052;51.050;3.716;2024-03-02T00:26:48;6.70;99.90
13960;DHT22;7052;51.050;3.716;2024-03-02T00:29:16;6.70;99.90
13960;DHT22;7052;51.050;3.716;2024-03-02T00:31:45;6.70;99.90
13960;DHT22;7052;51.050;3.716;2024-03-02T00:34:14;6.70;99.90
13960;DHT22;7052;51.050;3.716;2024-03-02T00:36:43;6.70;99.90
13960;DHT22;7052;51.050;3.716;2024-03-02T00:39:13;6.60;99.90
13960;DHT22;7052;51.050;3.716;2024-03-02T00:41:42;6.60;99.90
13960;DHT22;7052;51.050;3.716;2024-03-02T00:44:12;6.50;99.90
13960;DHT22;7052;51.050;3.716;2024-03-02T00:46:43;6.50;99.90
13960;DHT22;7052;51.050;3.716;2024-03-02T00:49:18;6.50;99.90
13960;DHT22;7052;51.050;3.716;2024-03-02T00:51:47;6.60;99.90
13960;DHT22;7052;51.050;3.716;2024-03-02T00:54:19;6.60;99.90
13960;DHT22;7052;51.050;3.716;2024-03-02T00:56:47;6.60;99.90
13960;DHT22;7052;51.050;3.716;2024-03-02T00:59:14;6.60;99.90
13960;DHT22;7052;51.050;3.716;2024-03-02T01:01:41;6.70;99.90
13960;DHT22;7052;51.050;3.716;2024-03-02T01:04:10;6.70;99.90
13960;DHT22;7052;51.050;3.716;2024-03-02T01:06:39;6.70;99.90
13960;DHT22;7052;51.050;3.716;2024-03-02T01:09:07;6.60;99.90
13960;DHT22;7052;51.050;3.716;2024-03-02T01:11:35;6.60;99.90
13960;DHT22;7052;51.050;3.716;2024-03-02T01:14:03;6.60;99.90
13960;DHT22;7052;51.050;3.716;2024-03-02T01:16:30;6.50;99.90
13960;DHT22;7052;51.050;3.716;2024-03-02T01:18:57;6.50;99.90
13960;DHT22;7052;51.050;3.716;2024-03-02T01:21:24;6.50;99.90
13960;DHT22;7052;51.050;3.716;2024-03-02T01:23:56;6.50;99.90
13960;DHT22;7052;51.050;3.716;2024-03-02T01:26:25;6.40;99.90
13960;DHT22;7052;51.050;3.716;2024-03-02T01:28:54;6.40;99.90
13960;DHT22;7052;51.050;3.716;2024-03-02T01:31:22;6.50;99.90
13960;DHT22;7052;51.050;3.716;2024-03-02T01:33:52;6.40;99.90
13960;DHT22;7052;51.050;3.716;2024-03-02T01:36:26;6.40;99.90
13960;DHT22;7052;51.050;3.716;2024-03-02T01:39:00;6.40;99.90
13960;DHT22;7052;51.050;3.716;2024-03-02T01:41:30;6.40;99.90
13960;DHT22;7052;51.050;3.716;2024-03-02T01:43:58;6.40;99.90
13960;DHT22;7052;51.050;3.716;2024-03-02T01:46:25;6.40;99.90
13960;DHT22;7052;51.050;3.716;2024-03-02T01:48:53;6.40;99.90
13960;DHT22;7052;51.050;3.716;2024-03-02T01:51:22;6.40;99.90
13960;DHT22;7052;51.050;3.716;2024-03-02T01:53:49;6.40;99.90
13960;DHT22;7052;51.050;3.716;2024-03-02T01:56:16;6.40;99.90
13960;DHT22;7052;51.050;3.716;2024-03-02T01:58:43;6.30;99.90
13960;DHT22;7052;51.050;3.716;2024-03-02T02:01:14;6.30;99.90
13960;DHT22;7052;51.050;3.716;2024-03-02T02:03:42;6.30;99.90
13960;DHT22;7052;51.050;3.716;2024-03-02T02:06:10;6.30;99.90
13960;DHT22;7052;51.050;3.716;2024-03-02T02:08:37;6.30;99.90
13960;DHT22;7052;51.050;3.716;2024-03-02T02:11:05;6.20;99.90
13960;DHT22;7052;51.050;3.716;2024-03-02T02:13:32;6.30;99.90
13960;DHT22;7052;51.050;3.716;2024-03-02T02:16:05;6.30;99.90
13960;DHT22;7052;51.050;3.716;2024-03-02T02:18:36;6.20;99.90
13960;DHT22;7052;51.050;3.716;2024-03-02T02:21:03;6.20;99.90
13960;DHT22;7052;51.050;3.716;2024-03-02T02:23:31;6.30;99.90
13960;DHT22;7052;51.050;3.716;2024-03-02T02:25:58;6.30;99.90
13960;DHT22;7052;51.050;3.716;2024-03-02T02:28:25;6.30;99.90
13960;DHT22;7052;51.050;3.716;2024-03-02T02:30:54;6.20;99.90
13960;DHT22;7052;51.050;3.716;2024-03-02T02:33:22;6.20;99.90
13960;DHT22;7052;51.050;3.716;2024-03-02T02:35:49;6.20;99.90
13960;DHT22;7052;51.050;3.716;2024-03-02T02:38:16;6.20;99.90
13960;DHT22;7052;51.050;3.716;2024-03-02T02:40:46;6.30;99.90
13960;DHT22;7052;51.050;3.716;2024-03-02T02:43:14;6.20;99.90
13960;DHT22;7052;51.050;3.716;2024-03-02T02:45:40;6.10;99.90
13960;DHT22;7052;51.050;3.716;2024-03-02T02:48:07;6.10;99.90
13960;DHT22;7052;51.050;3.716;2024-03-02T02:50:34;6.20;99.90
13960;DHT22;7052;51.050;3.716;2024-03-02T02:53:02;6.20;99.90
13960;DHT22;7052;51.050;3.716;2024-03-02T02:55:31;6.20;99.90
13960;DHT22;7052;51.050;3.716;2024-03-02T02:58:00;6.20;99.90
13960;DHT22;7052;51.050;3.716;2024-03-02T03:00:28;6.20;99.90
13960;DHT22;7052;51.050;3.716;2024-03-02T03:02:55;6.20;99.90
13960;DHT22;7052;51.050;3.716;2024-03-02T03:05:22;6.20;99.90
13960;DHT22;7052;51.050;3.716;2024-03-02T03:07:49;6.20;99.90
13960;DHT22;7052;51.050;3.716;2024-03-02T03:10:17;6.10;99.90
13960;DHT22;7052;51.050;3.716;2024-03-02T03:12:44;6.10;99.90
13960;DHT22;7052;51.050;3.716;2024-03-02T03:15:12;6.10;99.90
13960;DHT22;7052;51.050;3.716;2024-03-02T03:17:40;6.10;99.90
13960;DHT22;7052;51.050;3.716;2024-03-02T03:20:07;6.10;99.90
13960;DHT22;7052;51.050;3.716;2024-03-02T03:22:36;6.10;99.90
13960;DHT22;7052;51.050;3.716;2024-03-02T03:25:03;6.10;99.90
13960;DHT22;7052;51.050;3.716;2024-03-02T03:27:32;6.10;99.90
13960;DHT22;7052;51.050;3.716;2024-03-02T03:30:01;6.00;99.90
13960;DHT22;7052;51.050;3.716;2024-03-02T03:32:30;6.00;99.90
13960;DHT22;7052;51.050;3.716;2024-03-02T03:34:58;6.00;99.90
13960;DHT22;7052;51.050;3.716;2024-03-02T03:37:25;6.00;99.90
13960;DHT22;7052;51.050;3.716;2024-03-02T03:39:58;5.90;99.90
13960;DHT22;7052;51.050;3.716;2024-03-02T03:42:25;5.90;99.90
13960;DHT22;7052;51.050;3.716;2024-03-02T03:44:52;5.90;99.90
13960;DHT22;7052;51.050;3.716;2024-03-02T03:47:20;5.90;99.90
13960;DHT22;7052;51.050;3.716;2024-03-02T03:49:49;5.90;99.90
13960;DHT22;7052;51.050;3.716;2024-03-02T03:52:16;5.90;99.90
13960;DHT22;7052;51.050;3.716;2024-03-02T03:54:43;5.90;99.90
13960;DHT22;7052;51.050;3.716;2024-03-02T03:57:11;5.90;99.90
13960;DHT22;7052;51.050;3.716;2024-03-02T03:59:38;6.00;99.90
13960;DHT22;7052;51.050;3.716;2024-03-02T04:02:05;6.00;99.90
13960;DHT22;7052;51.050;3.716;2024-03-02T04:04:32;6.00;99.90
13960;DHT22;7052;51.050;3.716;2024-03-02T04:07:01;5.90;99.90
13960;DHT22;7052;51.050;3.716;2024-03-02T04:09:28;5.90;99.90
13960;DHT22;7052;51.050;3.716;2024-03-02T04:11:56;5.90;99.90
13960;DHT22;7052;51.050;3.716;2024-03-02T04:14:23;5.90;99.90
13960;DHT22;7052;51.050;3.716;2024-03-02T04:16:50;5.90;99.90
13960;DHT22;7052;51.050;3.716;2024-03-02T04:19:21;5.90;99.90
13960;DHT22;7052;51.050;3.716;2024-03-02T04:21:47;5.80;99.90
13960;DHT22;7052;51.050;3.716;2024-03-02T04:24:16;5.80;99.90
13960;DHT22;7052;51.050;3.716;2024-03-02T04:26:44;5.90;99.90
13960;DHT22;7052;51.050;3.716;2024-03-02T04:29:11;5.90;99.90
13960;DHT22;7052;51.050;3.716;2024-03-02T04:31:38;5.90;99.90
13960;DHT22;7052;51.050;3.716;2024-03-02T04:34:05;5.90;99.90
13960;DHT22;7052;51.050;3.716;2024-03-02T04:36:31;5.90;99.90
13960;DHT22;7052;51.050;3.716;2024-03-02T04:38:58;6.00;99.90
13960;DHT22;7052;51.050;3.716;2024-03-02T04:41:27;6.00;99.90
13960;DHT22;7052;51.050;3.716;2024-03-02T04:43:54;6.10;99.90
13960;DHT22;7052;51.050;3.716;2024-03-02T04:46:21;6.00;99.90
13960;DHT22;7052;51.050;3.716;2024-03-02T04:48:48;6.10;99.90
13960;DHT22;7052;51.050;3.716;2024-03-02T04:51:20;6.10;99.90
13960;DHT22;7052;51.050;3.716;2024-03-02T04:53:47;6.10;99.90
13960;DHT22;7052;51.050;3.716;2024-03-02T04:56:14;6.10;99.90
13960;DHT22;7052;51.050;3.716;2024-03-02T04:59:07;6.10;99.90
13960;DHT22;7052;51.050;3.716;2024-03-02T05:01:34;6.10;99.90
13960;DHT22;7052;51.050;3.716;2024-03-02T05:04:01;6.00;99.90
13960;DHT22;7052;51.050;3.716;2024-03-02T05:06:29;5.90;99.90
13960;DHT22;7052;51.050;3.716;2024-03-02T05:08:56;5.90;99.90
13960;DHT22;7052;51.050;3.716;2024-03-02T05:11:23;5.90;99.90
13960;DHT22;7052;51.050;3.716;2024-03-02T05:14:06;5.90;99.90
13960;DHT22;7052;51.050;3.716;2024-03-02T05:16:33;5.90;99.90
13960;DHT22;7052;51.050;3.716;2024-03-02T05:19:00;5.80;99.90
13960;DHT22;7052;51.050;3.716;2024-03-02T05:21:29;5.80;99.90
13960;DHT22;7052;51.050;3.716;2024-03-02T05:23:56;5.80;99.90
13960;DHT22;7052;51.050;3.716;2024-03-02T05:26:23;5.70;99.90
13960;DHT22;7052;51.050;3.716;2024-03-02T05:28:50;5.70;99.90
13960;DHT22;7052;51.050;3.716;2024-03-02T05:31:18;5.70;99.90
13960;DHT22;7052;51.050;3.716;2024-03-02T05:33:46;5.70;99.90
13960;DHT22;7052;51.050;3.716;2024-03-02T05:36:13;5.70;99.90
13960;DHT22;7052;51.050;3.716;2024-03-02T05:38:40;5.60;99.90
13960;DHT22;7052;51.050;3.716;2024-03-02T05:41:06;5.50;99.90
13960;DHT22;7052;51.050;3.716;2024-03-02T05:43:37;5.60;99.90
13960;DHT22;7052;51.050;3.716;2024-03-02T05:46:04;5.60;99.90
13960;DHT22;7052;51.050;3.716;2024-03-02T05:48:32;5.60;99.90
13960;DHT22;7052;51.050;3.716;2024-03-02T05:51:00;5.50;99.90
13960;DHT22;7052;51.050;3.716;2024-03-02T05:53:29;5.50;99.90
13960;DHT22;7052;51.050;3.716;2024-03-02T05:55:58;5.50;99.90
13960;DHT22;7052;51.050;3.716;2024-03-02T05:58:25;5.50;99.90
13960;DHT22;7052;51.050;3.716;2024-03-02T06:01:03;5.50;99.90
13960;DHT22;7052;51.050;3.716;2024-03-02T06:03:32;5.40;99.90
13960;DHT22;7052;51.050;3.716;2024-03-02T06:05:59;5.00;99.90
13960;DHT22;7052;51.050;3.716;2024-03-02T06:08:26;5.40;99.90
13960;DHT22;7052;51.050;3.716;2024-03-02T06:10:54;5.40;99.90
13960;DHT22;7052;51.050;3.716;2024-03-02T06:13:22;5.40;99.90
13960;DHT22;7052;51.050;3.716;2024-03-02T06:15:48;5.40;99.90
13960;DHT22;7052;51.050;3.716;2024-03-02T06:18:15;5.30;99.90
13960;DHT22;7052;51.050;3.716;2024-03-02T06:20:46;5.30;99.90
13960;DHT22;7052;51.050;3.716;2024-03-02T06:23:13;5.30;99.90
13960;DHT22;7052;51.050;3.716;2024-03-02T06:25:40;5.30;99.90
13960;DHT22;7052;51.050;3.716;2024-03-02T06:28:09;5.30;99.90
13960;DHT22;7052;51.050;3.716;2024-03-02T06:30:36;5.30;99.90
13960;DHT22;7052;51.050;3.716;2024-03-02T06:33:04;5.30;99.90
13960;DHT22;7052;51.050;3.716;2024-03-02T06:35:31;5.30;99.90
13960;DHT22;7052;51.050;3.716;2024-03-02T06:37:59;5.30;99.90
13960;DHT22;7052;51.050;3.716;2024-03-02T06:40:26;5.30;99.90
13960;DHT22;7052;51.050;3.716;2024-03-02T06:42:53;5.30;99.90
13960;DHT22;7052;51.050;3.716;2024-03-02T06:45:20;5.30;99.90
13960;DHT22;7052;51.050;3.716;2024-03-02T06:47:47;5.30;99.90
13960;DHT22;7052;51.050;3.716;2024-03-02T06:50:16;5.30;99.90
13960;DHT22;7052;51.050;3.716;2024-03-02T06:52:43;5.30;99.90
13960;DHT22;7052;51.050;3.716;2024-03-02T06:55:12;5.30;99.90
13960;DHT22;7052;51.050;3.716;2024-03-02T06:57:39;5.30;99.90
13960;DHT22;7052;51.050;3.716;2024-03-02T07:00:06;5.30;99.90
13960;DHT22;7052;51.050;3.716;2024-03-02T07:02:34;5.40;99.90
13960;DHT22;7052;51.050;3.716;2024-03-02T07:05:01;5.50;99.90
13960;DHT22;7052;51.050;3.716;2024-03-02T07:07:32;5.50;99.90
13960;DHT22;7052;51.050;3.716;2024-03-02T07:10:00;5.50;99.90
13960;DHT22;7052;51.050;3.716;2024-03-02T07:12:29;5.40;99.90
13960;DHT22;7052;51.050;3.716;2024-03-02T07:14:58;5.50;99.90
13960;DHT22;7052;51.050;3.716;2024-03-02T07:17:50;5.50;99.90
13960;DHT22;7052;51.050;3.716;2024-03-02T07:20:18;5.60;99.90
13960;DHT22;7052;51.050;3.716;2024-03-02T07:22:47;5.60;99.90
13960;DHT22;7052;51.050;3.716;2024-03-02T07:25:13;5.70;99.90
13960;DHT22;7052;51.050;3.716;2024-03-02T07:27:42;5.80;99.90
13960;DHT22;7052;51.050;3.716;2024-03-02T07:30:14;5.80;99.90
13960;DHT22;7052;51.050;3.716;2024-03-02T07:32:43;5.90;99.90
13960;DHT22;7052;51.050;3.716;2024-03-02T07:35:12;5.90;99.90
13960;DHT22;7052;51.050;3.716;2024-03-02T07:37:40;6.00;99.90
13960;DHT22;7052;51.050;3.716;2024-03-02T07:40:09;6.10;99.90
13960;DHT22;7052;51.050;3.716;2024-03-02T07:42:37;6.20;99.90
13960;DHT22;7052;51.050;3.716;2024-03-02T07:45:08;6.20;99.90
13960;DHT22;7052;51.050;3.716;2024-03-02T07:47:37;6.30;99.90
13960;DHT22;7052;51.050;3.716;2024-03-02T07:50:05;6.40;99.90
13960;DHT22;7052;51.050;3.716;2024-03-02T07:52:33;6.50;99.90
13960;DHT22;7052;51.050;3.716;2024-03-02T07:55:01;6.50;99.90
13960;DHT22;7052;51.050;3.716;2024-03-02T07:57:28;6.60;99.90
13960;DHT22;7052;51.050;3.716;2024-03-02T07:59:55;6.70;99.90
13960;DHT22;7052;51.050;3.716;2024-03-02T08:02:23;6.80;99.90
13960;DHT22;7052;51.050;3.716;2024-03-02T08:04:50;6.80;99.90
13960;DHT22;7052;51.050;3.716;2024-03-02T08:07:17;6.90;99.90
13960;DHT22;7052;51.050;3.716;2024-03-02T08:09:44;7.00;99.90
13960;DHT22;7052;51.050;3.716;2024-03-02T08:12:11;7.00;99.90
13960;DHT22;7052;51.050;3.716;2024-03-02T08:14:39;7.10;99.90
13960;DHT22;7052;51.050;3.716;2024-03-02T08:17:07;7.20;99.90
13960;DHT22;7052;51.050;3.716;2024-03-02T08:19:37;7.20;99.90
13960;DHT22;7052;51.050;3.716;2024-03-02T08:22:06;7.30;99.90
13960;DHT22;7052;51.050;3.716;2024-03-02T08:24:34;7.40;99.90
13960;DHT22;7052;51.050;3.716;2024-03-02T08:27:02;7.50;99.90
13960;DHT22;7052;51.050;3.716;2024-03-02T08:29:29;7.60;99.90
13960;DHT22;7052;51.050;3.716;2024-03-02T08:31:57;7.60;99.90
13960;DHT22;7052;51.050;3.716;2024-03-02T08:34:24;7.70;99.90
13960;DHT22;7052;51.050;3.716;2024-03-02T08:36:52;7.80;99.90
13960;DHT22;7052;51.050;3.716;2024-03-02T08:39:21;7.90;99.90
13960;DHT22;7052;51.050;3.716;2024-03-02T08:41:48;7.90;99.90
13960;DHT22;7052;51.050;3.716;2024-03-02T08:44:16;8.00;99.90
13960;DHT22;7052;51.050;3.716;2024-03-02T08:46:44;8.10;99.90
13960;DHT22;7052;51.050;3.716;2024-03-02T08:49:11;8.20;99.90
13960;DHT22;7052;51.050;3.716;2024-03-02T08:51:40;8.30;99.90
13960;DHT22;7052;51.050;3.716;2024-03-02T08:54:08;8.40;99.90
13960;DHT22;7052;51.050;3.716;2024-03-02T08:56:37;8.40;99.90
13960;DHT22;7052;51.050;3.716;2024-03-02T08:59:04;8.40;99.90
13960;DHT22;7052;51.050;3.716;2024-03-02T09:01:32;8.30;99.90
13960;DHT22;7052;51.050;3.716;2024-03-02T09:03:59;8.30;99.90
13960;DHT22;7052;51.050;3.716;2024-03-02T09:06:27;8.30;99.90
13960;DHT22;7052;51.050;3.716;2024-03-02T09:08:54;8.30;99.90
13960;DHT22;7052;51.050;3.716;2024-03-02T09:11:22;8.40;99.90
13960;DHT22;7052;51.050;3.716;2024-03-02T09:13:49;8.50;99.90
13960;DHT22;7052;51.050;3.716;2024-03-02T09:16:16;8.70;99.90
13960;DHT22;7052;51.050;3.716;2024-03-02T09:18:44;8.80;99.90
13960;DHT22;7052;51.050;3.716;2024-03-02T09:21:11;9.00;99.90
13960;DHT22;7052;51.050;3.716;2024-03-02T09:23:38;9.10;99.90
13960;DHT22;7052;51.050;3.716;2024-03-02T09:26:05;9.10;99.90
13960;DHT22;7052;51.050;3.716;2024-03-02T09:28:42;9.10;99.90
13960;DHT22;7052;51.050;3.716;2024-03-02T09:31:09;9.10;99.90
13960;DHT22;7052;51.050;3.716;2024-03-02T09:33:37;9.20;99.90
13960;DHT22;7052;51.050;3.716;2024-03-02T09:36:06;9.20;99.90
13960;DHT22;7052;51.050;3.716;2024-03-02T09:38:33;9.30;99.90
13960;DHT22;7052;51.050;3.716;2024-03-02T09:41:01;9.50;99.90
13960;DHT22;7052;51.050;3.716;2024-03-02T09:43:30;9.70;99.90
13960;DHT22;7052;51.050;3.716;2024-03-02T09:45:58;9.80;99.90
13960;DHT22;7052;51.050;3.716;2024-03-02T09:48:27;9.90;99.90
13960;DHT22;7052;51.050;3.716;2024-03-02T09:50:54;9.90;99.90
13960;DHT22;7052;51.050;3.716;2024-03-02T09:53:22;9.90;99.90
13960;DHT22;7052;51.050;3.716;2024-03-02T09:55:49;9.90;99.90
13960;DHT22;7052;51.050;3.716;2024-03-02T09:58:18;9.90;99.90
13960;DHT22;7052;51.050;3.716;2024-03-02T10:00:47;10.00;99.90
13960;DHT22;7052;51.050;3.716;2024-03-02T10:03:20;10.00;99.90
13960;DHT22;7052;51.050;3.716;2024-03-02T10:05:47;10.00;99.90
13960;DHT22;7052;51.050;3.716;2024-03-02T10:08:15;10.00;99.70
13960;DHT22;7052;51.050;3.716;2024-03-02T10:10:45;9.90;99.90
13960;DHT22;7052;51.050;3.716;2024-03-02T10:13:13;9.90;99.90
13960;DHT22;7052;51.050;3.716;2024-03-02T10:15:40;9.90;99.90
13960;DHT22;7052;51.050;3.716;2024-03-02T10:18:09;9.90;99.90
13960;DHT22;7052;51.050;3.716;2024-03-02T10:20:39;9.90;99.90
13960;DHT22;7052;51.050;3.716;2024-03-02T10:23:12;9.80;99.90
13960;DHT22;7052;51.050;3.716;2024-03-02T10:25:40;9.80;99.90
13960;DHT22;7052;51.050;3.716;2024-03-02T10:28:08;9.80;99.90
13960;DHT22;7052;51.050;3.716;2024-03-02T10:30:37;9.80;99.90
13960;DHT22;7052;51.050;3.716;2024-03-02T10:33:06;9.80;99.90
13960;DHT22;7052;51.050;3.716;2024-03-02T10:35:33;9.90;99.90
13960;DHT22;7052;51.050;3.716;2024-03-02T10:38:04;9.90;99.50
13960;DHT22;7052;51.050;3.716;2024-03-02T10:40:32;10.00;99.40
13960;DHT22;7052;51.050;3.716;2024-03-02T10:42:59;10.10;99.20
13960;DHT22;7052;51.050;3.716;2024-03-02T10:45:28;10.20;98.60
13960;DHT22;7052;51.050;3.716;2024-03-02T10:47:56;10.20;98.40
13960;DHT22;7052;51.050;3.716;2024-03-02T10:50:24;10.30;98.10
13960;DHT22;7052;51.050;3.716;2024-03-02T10:52:51;10.40;97.90
13960;DHT22;7052;51.050;3.716;2024-03-02T10:55:20;10.40;97.00
13960;DHT22;7052;51.050;3.716;2024-03-02T10:57:51;10.40;96.00
13960;DHT22;7052;51.050;3.716;2024-03-02T11:00:25;10.50;96.40
13960;DHT22;7052;51.050;3.716;2024-03-02T11:02:57;10.50;96.10
13960;DHT22;7052;51.050;3.716;2024-03-02T11:05:28;10.60;96.00
13960;DHT22;7052;51.050;3.716;2024-03-02T11:08:00;10.80;96.00
13960;DHT22;7052;51.050;3.716;2024-03-02T11:10:37;10.90;94.30
13960;DHT22;7052;51.050;3.716;2024-03-02T11:13:09;11.10;93.70
13960;DHT22;7052;51.050;3.716;2024-03-02T11:15:36;11.20;92.10
13960;DHT22;7052;51.050;3.716;2024-03-02T11:18:07;11.30;90.50
13960;DHT22;7052;51.050;3.716;2024-03-02T11:20:38;11.30;89.30
13960;DHT22;7052;51.050;3.716;2024-03-02T11:23:06;11.30;88.60
13960;DHT22;7052;51.050;3.716;2024-03-02T11:25:35;11.40;88.60
13960;DHT22;7052;51.050;3.716;2024-03-02T11:28:05;11.50;89.90
13960;DHT22;7052;51.050;3.716;2024-03-02T11:30:50;11.50;88.50
13960;DHT22;7052;51.050;3.716;2024-03-02T11:33:24;11.50;86.40
13960;DHT22;7052;51.050;3.716;2024-03-02T11:35:57;11.50;86.10
13960;DHT22;7052;51.050;3.716;2024-03-02T11:38:31;11.50;86.00
13960;DHT22;7052;51.050;3.716;2024-03-02T11:41:01;11.40;85.40
13960;DHT22;7052;51.050;3.716;2024-03-02T11:43:29;11.50;85.00
13960;DHT22;7052;51.050;3.716;2024-03-02T11:46:00;11.50;85.70
13960;DHT22;7052;51.050;3.716;2024-03-02T11:48:30;11.60;86.00
13960;DHT22;7052;51.050;3.716;2024-03-02T11:50:59;11.60;85.30
13960;DHT22;7052;51.050;3.716;2024-03-02T11:53:27;11.60;84.50
13960;DHT22;7052;51.050;3.716;2024-03-02T11:55:56;11.60;84.40
13960;DHT22;7052;51.050;3.716;2024-03-02T11:58:27;11.60;84.30
13960;DHT22;7052;51.050;3.716;2024-03-02T12:00:55;11.50;84.40
13960;DHT22;7052;51.050;3.716;2024-03-02T12:03:24;11.50;85.40
13960;DHT22;7052;51.050;3.716;2024-03-02T12:05:53;11.50;87.90
13960;DHT22;7052;51.050;3.716;2024-03-02T12:08:21;11.40;90.10
13960;DHT22;7052;51.050;3.716;2024-03-02T12:10:59;11.40;90.50
13960;DHT22;7052;51.050;3.716;2024-03-02T12:13:28;11.30;91.70
13960;DHT22;7052;51.050;3.716;2024-03-02T12:15:56;11.30;93.00
13960;DHT22;7052;51.050;3.716;2024-03-02T12:18:23;11.30;93.00
13960;DHT22;7052;51.050;3.716;2024-03-02T12:20:50;11.30;93.60
13960;DHT22;7052;51.050;3.716;2024-03-02T12:23:25;11.30;93.40
13960;DHT22;7052;51.050;3.716;2024-03-02T12:25:53;11.30;94.00
13960;DHT22;7052;51.050;3.716;2024-03-02T12:28:21;11.20;94.20
13960;DHT22;7052;51.050;3.716;2024-03-02T12:30:51;11.20;95.30
13960;DHT22;7052;51.050;3.716;2024-03-02T12:33:18;11.10;96.40
13960;DHT22;7052;51.050;3.716;2024-03-02T12:35:50;11.10;97.90
13960;DHT22;7052;51.050;3.716;2024-03-02T12:38:17;11.10;99.20
13960;DHT22;7052;51.050;3.716;2024-03-02T12:40:48;11.00;99.90
13960;DHT22;7052;51.050;3.716;2024-03-02T12:43:16;10.90;99.90
13960;DHT22;7052;51.050;3.716;2024-03-02T12:45:44;10.80;99.90
13960;DHT22;7052;51.050;3.716;2024-03-02T12:48:15;10.80;99.90
13960;DHT22;7052;51.050;3.716;2024-03-02T12:50:42;10.70;99.90
13960;DHT22;7052;51.050;3.716;2024-03-02T12:53:14;10.70;99.90
13960;DHT22;7052;51.050;3.716;2024-03-02T12:55:41;10.70;99.90
13960;DHT22;7052;51.050;3.716;2024-03-02T12:58:16;10.70;99.90
13960;DHT22;7052;51.050;3.716;2024-03-02T13:00:43;10.60;99.90
13960;DHT22;7052;51.050;3.716;2024-03-02T13:03:13;10.60;99.90
13960;DHT22;7052;51.050;3.716;2024-03-02T13:05:48;10.60;99.90
13960;DHT22;7052;51.050;3.716;2024-03-02T13:08:16;10.50;99.90
13960;DHT22;7052;51.050;3.716;2024-03-02T13:10:44;10.50;99.90
13960;DHT22;7052;51.050;3.716;2024-03-02T13:13:11;10.50;99.90
13960;DHT22;7052;51.050;3.716;2024-03-02T13:15:40;10.50;99.90
13960;DHT22;7052;51.050;3.716;2024-03-02T13:18:08;10.50;99.90
13960;DHT22;7052;51.050;3.716;2024-03-02T13:20:39;10.50;99.90
13960;DHT22;7052;51.050;3.716;2024-03-02T13:23:06;10.50;99.90
13960;DHT22;7052;51.050;3.716;2024-03-02T13:25:33;10.40;99.90
13960;DHT22;7052;51.050;3.716;2024-03-02T13:28:01;10.40;99.90
13960;DHT22;7052;51.050;3.716;2024-03-02T13:30:29;10.40;99.90
13960;DHT22;7052;51.050;3.716;2024-03-02T13:32:58;10.30;99.90
13960;DHT22;7052;51.050;3.716;2024-03-02T13:35:25;10.20;99.90
13960;DHT22;7052;51.050;3.716;2024-03-02T13:37:53;10.20;99.90
13960;DHT22;7052;51.050;3.716;2024-03-02T13:40:20;10.20;99.90
13960;DHT22;7052;51.050;3.716;2024-03-02T13:42:51;10.20;99.90
13960;DHT22;7052;51.050;3.716;2024-03-02T13:45:19;10.30;99.90
13960;DHT22;7052;51.050;3.716;2024-03-02T13:47:48;10.30;99.90
13960;DHT22;7052;51.050;3.716;2024-03-02T13:50:15;10.30;99.90
13960;DHT22;7052;51.050;3.716;2024-03-02T13:52:42;10.40;99.90
13960;DHT22;7052;51.050;3.716;2024-03-02T13:55:12;10.40;99.90
13960;DHT22;7052;51.050;3.716;2024-03-02T13:57:39;10.40;99.90
13960;DHT22;7052;51.050;3.716;2024-03-02T14:00:08;10.40;99.90
13960;DHT22;7052;51.050;3.716;2024-03-02T14:02:38;10.40;99.90
13960;DHT22;7052;51.050;3.716;2024-03-02T14:05:05;10.40;99.90
13960;DHT22;7052;51.050;3.716;2024-03-02T14:07:37;10.40;99.90
13960;DHT22;7052;51.050;3.716;2024-03-02T14:10:05;10.40;99.90
13960;DHT22;7052;51.050;3.716;2024-03-02T14:12:33;10.40;99.90
13960;DHT22;7052;51.050;3.716;2024-03-02T14:15:01;10.40;99.90
13960;DHT22;7052;51.050;3.716;2024-03-02T14:17:28;10.40;99.90
13960;DHT22;7052;51.050;3.716;2024-03-02T14:19:57;10.40;99.90
13960;DHT22;7052;51.050;3.716;2024-03-02T14:22:25;10.40;99.90
13960;DHT22;7052;51.050;3.716;2024-03-02T14:24:54;10.40;99.90
13960;DHT22;7052;51.050;3.716;2024-03-02T14:27:21;10.40;99.90
13960;DHT22;7052;51.050;3.716;2024-03-02T14:29:49;10.40;99.90
13960;DHT22;7052;51.050;3.716;2024-03-02T14:32:16;10.40;99.90
13960;DHT22;7052;51.050;3.716;2024-03-02T14:34:43;10.40;99.90
13960;DHT22;7052;51.050;3.716;2024-03-02T14:37:12;10.30;99.90
13960;DHT22;7052;51.050;3.716;2024-03-02T14:39:40;10.30;99.90
13960;DHT22;7052;51.050;3.716;2024-03-02T14:42:08;10.30;99.90
13960;DHT22;7052;51.050;3.716;2024-03-02T14:44:36;10.30;99.90
13960;DHT22;7052;51.050;3.716;2024-03-02T14:47:09;10.30;99.90
13960;DHT22;7052;51.050;3.716;2024-03-02T14:49:36;10.30;99.90
13960;DHT22;7052;51.050;3.716;2024-03-02T14:52:06;10.30;99.90
13960;DHT22;7052;51.050;3.716;2024-03-02T14:54:34;10.30;99.90
13960;DHT22;7052;51.050;3.716;2024-03-02T14:57:01;10.30;99.90
13960;DHT22;7052;51.050;3.716;2024-03-02T14:59:30;10.30;99.90
13960;DHT22;7052;51.050;3.716;2024-03-02T15:01:57;10.40;99.90
13960;DHT22;7052;51.050;3.716;2024-03-02T15:04:38;10.50;99.90
13960;DHT22;7052;51.050;3.716;2024-03-02T15:07:05;10.50;99.90
13960;DHT22;7052;51.050;3.716;2024-03-02T15:09:33;10.50;99.90
13960;DHT22;7052;51.050;3.716;2024-03-02T15:12:01;10.60;99.90
13960;DHT22;7052;51.050;3.716;2024-03-02T15:14:36;10.60;99.90
13960;DHT22;7052;51.050;3.716;2024-03-02T15:17:04;10.70;99.90
13960;DHT22;7052;51.050;3.716;2024-03-02T15:19:33;10.70;99.90
13960;DHT22;7052;51.050;3.716;2024-03-02T15:22:00;10.70;99.90
13960;DHT22;7052;51.050;3.716;2024-03-02T15:24:28;10.70;99.90
13960;DHT22;7052;51.050;3.716;2024-03-02T15:26:55;10.60;99.90
13960;DHT22;7052;51.050;3.716;2024-03-02T15:29:24;10.60;99.90
13960;DHT22;7052;51.050;3.716;2024-03-02T15:31:54;10.60;99.90
13960;DHT22;7052;51.050;3.716;2024-03-02T15:34:21;10.60;99.90
13960;DHT22;7052;51.050;3.716;2024-03-02T15:36:50;10.60;99.90
13960;DHT22;7052;51.050;3.716;2024-03-02T15:39:17;10.60;99.90
13960;DHT22;7052;51.050;3.716;2024-03-02T15:41:45;10.70;99.90
13960;DHT22;7052;51.050;3.716;2024-03-02T15:44:14;10.70;99.90
13960;DHT22;7052;51.050;3.716;2024-03-02T15:46:41;10.80;99.90
13960;DHT22;7052;51.050;3.716;2024-03-02T15:49:09;10.80;99.90
13960;DHT22;7052;51.050;3.716;2024-03-02T15:51:35;10.80;99.90
13960;DHT22;7052;51.050;3.716;2024-03-02T15:54:08;10.80;99.90
13960;DHT22;7052;51.050;3.716;2024-03-02T15:56:34;10.80;99.90
13960;DHT22;7052;51.050;3.716;2024-03-02T15:59:02;10.80;99.90
13960;DHT22;7052;51.050;3.716;2024-03-02T16:01:30;10.80;99.90
13960;DHT22;7052;51.050;3.716;2024-03-02T16:03:58;10.80;99.90
13960;DHT22;7052;51.050;3.716;2024-03-02T16:06:25;10.90;99.90